createdAt,value
2019-05-14T00:01:03.271Z,87944.63
2019-05-14T00:03:31.157Z,87938.97
2019-05-14T00:05:58.016Z,87939.41
2019-05-14T00:08:24.858Z,87930.16
2019-05-14T00:10:52.184Z,87929.95
2019-05-14T00:13:21.270Z,87924.39
2019-05-14T00:15:47.640Z,87919.50
2019-05-14T00:18:14.370Z,87913.06
2019-05-14T00:20:41.939Z,87912.73
2019-05-14T00:23:08.924Z,87915.24
2019-05-14T00:25:35.683Z,87913.52
2019-05-14T00:28:02.485Z,87900.89
2019-05-14T00:30:31.055Z,87897.94
2019-05-14T00:32:57.831Z,87900.45
2019-05-14T00:35:24.634Z,87898.50
2019-05-14T00:37:52.107Z,87896.75
2019-05-14T00:40:18.979Z,87890.22
2019-05-14T00:42:45.793Z,87890.32
2019-05-14T00:45:12.719Z,87889.00
2019-05-14T00:47:41.581Z,87885.62
2019-05-14T00:50:08.638Z,87878.55
2019-05-14T00:52:35.385Z,87877.68
2019-05-14T00:55:05.520Z,87878.78
2019-05-14T00:57:32.353Z,87877.27
2019-05-14T01:00:01.032Z,87872.14
2019-05-14T01:02:27.610Z,87868.97
2019-05-14T01:04:54.417Z,87864.72
2019-05-14T01:07:21.305Z,87865.48
2019-05-14T01:09:48.395Z,87868.00
2019-05-14T01:12:15.305Z,87866.47
2019-05-14T01:14:42.610Z,87860.14
2019-05-14T01:17:11.304Z,87853.09
2019-05-14T01:19:38.154Z,87852.88
2019-05-14T01:22:04.880Z,87846.55
2019-05-14T01:24:32.267Z,87844.14
2019-05-14T01:27:01.447Z,87843.61
2019-05-14T01:29:27.810Z,87842.61
2019-05-14T01:31:54.569Z,87841.95
2019-05-14T01:34:21.672Z,87840.98
2019-05-14T01:36:48.495Z,87833.25
2019-05-14T01:39:15.256Z,87832.58
2019-05-14T01:41:42.511Z,87836.27
2019-05-14T01:44:11.803Z,87829.73
2019-05-14T01:46:37.936Z,87828.33
2019-05-14T01:49:04.716Z,87823.95
2019-05-14T01:51:31.780Z,87831.54
2019-05-14T01:53:58.683Z,87830.23
2019-05-14T01:56:25.487Z,87829.89
2019-05-14T01:58:52.409Z,87828.25
2019-05-14T02:01:21.689Z,87824.77
2019-05-14T02:03:47.813Z,87814.73
2019-05-14T02:06:14.572Z,87812.75
2019-05-14T02:08:41.497Z,87815.69
2019-05-14T02:11:08.361Z,87810.66
2019-05-14T02:13:35.119Z,87815.00
2019-05-14T02:16:02.480Z,87812.05
2019-05-14T02:18:31.132Z,87808.77
2019-05-14T02:20:58.088Z,87802.91
2019-05-14T02:23:24.847Z,87800.49
2019-05-14T02:25:51.922Z,87801.13
2019-05-14T02:28:18.785Z,87796.57
2019-05-14T02:30:56.088Z,87796.77
2019-05-14T02:33:14.155Z,87789.24
2019-05-14T02:35:40.945Z,87783.69
2019-05-14T02:38:10.317Z,87775.64
2019-05-14T02:40:36.261Z,87779.41
2019-05-14T02:43:03.219Z,87767.25
2019-05-14T02:45:30.527Z,87771.25
2019-05-14T02:48:00.382Z,87771.23
2019-05-14T02:50:29.273Z,87769.58
2019-05-14T02:52:54.470Z,87769.88
2019-05-14T02:55:21.280Z,87765.77
2019-05-14T02:57:50.083Z,87764.44
2019-05-14T03:00:19.334Z,87764.64
2019-05-14T03:02:45.394Z,87753.67
2019-05-14T03:05:12.299Z,87757.58
2019-05-14T03:07:39.710Z,87747.44
2019-05-14T03:10:09.894Z,87749.19
2019-05-14T03:12:39.303Z,87747.00
2019-05-14T03:15:09.618Z,87745.34
2019-05-14T03:17:40.531Z,87737.53
2019-05-14T03:20:09.103Z,87728.84
2019-05-14T03:22:46.994Z,87732.75
2019-05-14T03:25:05.706Z,87737.28
2019-05-14T03:27:32.424Z,87738.05
2019-05-14T03:29:59.142Z,87748.55
2019-05-14T03:32:26.112Z,87737.45
2019-05-14T03:34:54.290Z,87741.02
2019-05-14T03:37:23.571Z,87739.08
2019-05-14T03:39:49.860Z,87733.44
2019-05-14T03:42:19.428Z,87725.48
2019-05-14T03:44:45.172Z,87720.90
2019-05-14T03:47:11.960Z,87720.45
2019-05-14T03:49:39.797Z,87725.55
2019-05-14T03:52:09.581Z,87724.78
2019-05-14T03:54:35.740Z,87723.36
2019-05-14T03:57:02.445Z,87728.95
2019-05-14T03:59:29.475Z,87729.06
2019-05-14T04:01:59.392Z,87728.06
2019-05-14T04:04:24.998Z,87723.72
2019-05-14T04:06:53.879Z,87731.19
2019-05-14T04:09:21.958Z,87726.11
2019-05-14T04:11:52.248Z,87725.64
2019-05-14T04:14:23.429Z,87717.62
2019-05-14T04:17:05.265Z,87721.94
2019-05-14T04:19:22.975Z,87720.08
2019-05-14T04:21:49.685Z,87726.46
2019-05-14T04:24:20.458Z,87717.71
2019-05-14T04:26:58.437Z,87721.08
2019-05-14T04:29:19.829Z,87717.03
2019-05-14T04:31:50.365Z,87721.14
2019-05-14T04:34:19.318Z,87721.22
2019-05-14T04:36:44.758Z,87718.83
2019-05-14T04:39:11.663Z,87720.45
2019-05-14T04:41:39.384Z,87721.75
2019-05-14T04:44:09.546Z,87720.98
2019-05-14T04:46:35.277Z,87722.16
2019-05-14T04:49:02.023Z,87723.31
2019-05-14T04:51:30.329Z,87721.66
2019-05-14T04:53:59.896Z,87723.97
2019-05-14T04:56:25.911Z,87709.87
2019-05-14T04:58:52.651Z,87713.69
2019-05-14T05:01:20.932Z,87719.00
2019-05-14T05:03:50.368Z,87718.03
2019-05-14T05:06:19.201Z,87715.10
2019-05-14T05:08:45.098Z,87709.08
2019-05-14T05:11:11.850Z,87708.16
2019-05-14T05:13:39.694Z,87707.95
2019-05-14T05:16:09.636Z,87709.78
2019-05-14T05:18:35.406Z,87707.18
2019-05-14T05:21:02.146Z,87705.88
2019-05-14T05:23:28.934Z,87697.84
2019-05-14T05:25:55.651Z,87695.56
2019-05-14T05:28:22.432Z,87697.84
2019-05-14T05:30:49.275Z,87694.17
2019-05-14T05:33:16.066Z,87688.44
2019-05-14T05:35:42.827Z,87688.80
2019-05-14T05:38:09.661Z,87693.83
2019-05-14T05:40:38.982Z,87683.45
2019-05-14T05:43:04.988Z,87684.48
2019-05-14T05:45:31.862Z,87684.32
2019-05-14T05:48:01.629Z,87682.00
2019-05-14T05:50:28.752Z,87671.19
2019-05-14T05:52:55.770Z,87679.59
2019-05-14T05:55:24.233Z,87677.15
2019-05-14T05:57:50.975Z,87661.78
2019-05-14T06:00:34.340Z,87672.48
2019-05-14T06:03:01.102Z,87662.30
2019-05-14T06:05:29.248Z,87660.47
2019-05-14T06:07:58.872Z,87662.55
2019-05-14T06:10:24.745Z,87652.81
2019-05-14T06:12:51.461Z,87648.69
2019-05-14T06:15:19.223Z,87647.39
2019-05-14T06:17:46.128Z,87640.77
2019-05-14T06:20:13.195Z,87639.86
2019-05-14T06:22:40.021Z,87635.51
2019-05-14T06:25:10.955Z,87632.55
2019-05-14T06:27:37.901Z,87624.04
2019-05-14T06:30:09.071Z,87617.58
2019-05-14T06:32:38.536Z,87608.17
2019-05-14T06:35:08.596Z,87609.22
2019-05-14T06:37:34.880Z,87602.67
2019-05-14T06:40:04.040Z,87605.02
2019-05-14T06:42:30.773Z,87603.52
2019-05-14T06:44:58.600Z,87602.92
2019-05-14T06:47:25.514Z,87609.41
2019-05-14T06:49:52.275Z,87601.11
2019-05-14T06:52:19.085Z,87600.12
2019-05-14T06:54:45.861Z,87596.24
2019-05-14T06:57:12.602Z,87601.10
2019-05-14T06:59:39.469Z,87595.86
2019-05-14T07:02:08.497Z,87591.45
2019-05-14T07:04:35.097Z,87589.92
2019-05-14T07:07:01.923Z,87592.61
2019-05-14T07:09:29.071Z,87601.61
2019-05-14T07:11:58.321Z,87597.67
2019-05-14T07:14:24.625Z,87595.47
2019-05-14T07:16:51.369Z,87603.90
2019-05-14T07:19:19.135Z,87596.55
2019-05-14T07:21:48.952Z,87600.34
2019-05-14T07:24:14.780Z,87588.46
2019-05-14T07:26:41.516Z,87584.15
2019-05-14T07:29:11.455Z,87576.56
2019-05-14T07:31:38.496Z,87572.37
2019-05-14T07:34:05.467Z,87577.89
2019-05-14T07:36:32.274Z,87577.53
2019-05-14T07:39:00.177Z,87579.31
2019-05-14T07:41:28.443Z,87575.33
2019-05-14T07:43:55.631Z,87571.94
2019-05-14T07:46:22.360Z,87583.52
2019-05-14T07:49:03.462Z,87583.78
2019-05-14T07:51:19.029Z,87576.81
2019-05-14T07:53:48.525Z,87588.84
2019-05-14T07:56:14.518Z,87570.34
2019-05-14T07:58:41.283Z,87574.73
2019-05-14T08:01:09.454Z,87562.55
2019-05-14T08:03:38.285Z,87554.30
2019-05-14T08:06:05.124Z,87557.27
2019-05-14T08:08:31.861Z,87562.30
2019-05-14T08:10:59.175Z,87561.72
2019-05-14T08:13:28.254Z,87559.19
2019-05-14T08:15:54.790Z,87559.41
2019-05-14T08:18:21.517Z,87559.00
2019-05-14T08:20:48.747Z,87565.92
2019-05-14T08:23:18.244Z,87545.25
2019-05-14T08:25:44.150Z,87547.84
2019-05-14T08:28:10.973Z,87544.05
2019-05-14T08:30:38.972Z,87540.07
2019-05-14T08:33:06.015Z,87558.28
2019-05-14T08:35:34.063Z,87546.02
2019-05-14T08:38:07.654Z,87538.55
2019-05-14T08:40:29.939Z,87536.34
2019-05-14T08:42:58.381Z,87548.20
2019-05-14T08:45:25.142Z,87552.44
2019-05-14T08:47:51.881Z,87537.38
2019-05-14T08:50:19.045Z,87536.83
2019-05-14T08:52:48.156Z,87530.08
2019-05-14T08:55:14.532Z,87534.35
2019-05-14T08:57:41.409Z,87521.73
2019-05-14T09:00:13.941Z,87529.72
2019-05-14T09:02:39.106Z,87522.71
2019-05-14T09:05:09.886Z,87526.14
2019-05-14T09:07:34.706Z,87519.76
2019-05-14T09:10:01.459Z,87519.32
2019-05-14T09:12:28.331Z,87522.22
2019-05-14T09:14:55.066Z,87509.87
2019-05-14T09:17:21.838Z,87502.95
2019-05-14T09:20:02.142Z,87501.64
2019-05-14T09:22:18.500Z,87498.41
2019-05-14T09:24:45.670Z,87496.78
2019-05-14T09:27:12.496Z,87490.83
2019-05-14T09:29:39.589Z,87498.95
2019-05-14T09:32:06.395Z,87503.05
2019-05-14T09:34:34.106Z,87504.24
2019-05-14T09:37:00.827Z,87506.04
2019-05-14T09:39:29.150Z,87511.59
2019-05-14T09:41:57.997Z,87507.08
2019-05-14T09:44:24.707Z,87522.97
2019-05-14T09:46:51.445Z,87508.73
2019-05-14T09:49:18.776Z,87503.93
2019-05-14T09:51:45.684Z,87505.16
2019-05-14T09:54:12.447Z,87518.10
2019-05-14T09:56:39.662Z,87521.72
2019-05-14T09:59:06.451Z,87501.45
2019-05-14T10:01:33.188Z,87507.73
2019-05-14T10:04:00.025Z,87503.34
2019-05-14T10:06:28.466Z,87502.48
2019-05-14T10:08:55.318Z,87513.24
2019-05-14T10:11:22.202Z,87511.58
2019-05-14T10:13:48.932Z,87502.75
2019-05-14T10:16:18.570Z,87499.06
2019-05-14T10:18:44.257Z,87508.08
2019-05-14T10:21:11.024Z,87502.05
2019-05-14T10:23:38.973Z,87500.27
2019-05-14T10:26:05.906Z,87498.73
2019-05-14T10:28:32.625Z,87500.43
2019-05-14T10:31:00.609Z,87499.34
2019-05-14T10:33:28.737Z,87507.79
2019-05-14T10:35:55.702Z,87507.94
2019-05-14T10:38:22.459Z,87516.06
2019-05-14T10:40:49.333Z,87515.92
2019-05-14T10:43:16.094Z,87510.40
2019-05-14T10:45:42.822Z,87504.67
2019-05-14T10:48:09.868Z,87500.80
2019-05-14T10:50:55.165Z,87486.42
2019-05-14T10:53:08.962Z,87498.70
2019-05-14T10:55:35.827Z,87506.80
2019-05-14T10:58:02.614Z,87504.99
2019-05-14T11:00:29.345Z,87504.54
2019-05-14T11:02:56.199Z,87494.78
2019-05-14T11:05:22.965Z,87490.53
2019-05-14T11:07:49.725Z,87495.84
2019-05-14T11:10:19.417Z,87478.36
2019-05-14T11:12:45.225Z,87492.06
2019-05-14T11:15:13.998Z,87495.84
2019-05-14T11:17:40.956Z,87499.39
2019-05-14T11:20:08.161Z,87508.49
2019-05-14T11:22:35.094Z,87531.02
2019-05-14T11:25:04.189Z,87511.44
2019-05-14T11:27:30.939Z,87508.89
2019-05-14T11:29:58.651Z,87505.20
2019-05-14T11:32:25.570Z,87508.98
2019-05-14T11:34:52.493Z,87500.98
2019-05-14T11:37:19.250Z,87489.01
2019-05-14T11:39:46.050Z,87498.87
2019-05-14T11:42:12.835Z,87504.53
2019-05-14T11:44:39.581Z,87499.08
2019-05-14T11:47:08.753Z,87496.41
2019-05-14T11:49:35.003Z,87504.81
2019-05-14T11:52:07.651Z,87500.25
2019-05-14T11:54:30.470Z,87505.05
2019-05-14T11:56:58.932Z,87504.72
2019-05-14T11:59:28.043Z,87505.86
2019-05-14T12:01:55.112Z,87512.84
2019-05-14T12:04:22.075Z,87503.86
2019-05-14T12:06:48.805Z,87517.07
2019-05-14T12:09:15.586Z,87498.33
2019-05-14T12:11:42.336Z,87490.59
2019-05-14T12:14:09.141Z,87482.81
2019-05-14T12:16:35.884Z,87489.47
2019-05-14T12:19:02.752Z,87482.88
2019-05-14T12:21:29.506Z,87510.06
2019-05-14T12:24:03.067Z,87497.80
2019-05-14T12:26:24.839Z,87494.58
2019-05-14T12:28:51.577Z,87490.81
2019-05-14T12:31:18.398Z,87493.44
2019-05-14T12:33:45.131Z,87488.16
2019-05-14T12:36:11.958Z,87482.27
2019-05-14T12:38:38.753Z,87494.06
2019-05-14T12:41:05.491Z,87489.14
2019-05-14T12:43:32.267Z,87498.93
2019-05-14T12:45:59.423Z,87513.35
2019-05-14T12:48:29.527Z,87507.38
2019-05-14T12:50:55.106Z,87511.15
2019-05-14T12:53:21.903Z,87512.86
2019-05-14T12:55:48.829Z,87507.31
2019-05-14T12:58:15.885Z,87495.13
2019-05-14T13:00:42.706Z,87489.90
2019-05-14T13:03:09.444Z,87486.61
2019-05-14T13:05:36.191Z,87492.28
2019-05-14T13:08:03.085Z,87476.27
2019-05-14T13:10:29.925Z,87470.25
2019-05-14T13:12:58.662Z,87458.91
2019-05-14T13:15:25.342Z,87462.31
2019-05-14T13:17:52.109Z,87456.63
2019-05-14T13:20:18.860Z,87468.13
2019-05-14T13:22:46.643Z,87461.37
2019-05-14T13:25:14.321Z,87454.39
2019-05-14T13:27:41.045Z,87439.84
2019-05-14T13:30:09.165Z,87468.55
2019-05-14T13:32:39.063Z,87471.37
2019-05-14T13:35:09.653Z,87473.41
2019-05-14T13:37:34.843Z,87452.17
2019-05-14T13:40:03.623Z,87455.23
2019-05-14T13:42:30.371Z,87452.68
2019-05-14T13:44:58.481Z,87437.59
2019-05-14T13:47:25.325Z,87426.45
2019-05-14T13:49:52.077Z,87432.87
2019-05-14T13:52:18.939Z,87436.97
2019-05-14T13:54:45.703Z,87437.75
2019-05-14T13:57:12.440Z,87431.89
2019-05-14T13:59:43.887Z,87411.52
2019-05-14T14:02:09.827Z,87419.48
2019-05-14T14:04:38.171Z,87402.29
2019-05-14T14:07:04.924Z,87393.23
2019-05-14T14:09:31.829Z,87402.10
2019-05-14T14:11:58.828Z,87397.97
2019-05-14T14:14:25.658Z,87399.47
2019-05-14T14:16:52.399Z,87393.05
2019-05-14T14:19:19.151Z,87426.84
2019-05-14T14:21:49.206Z,87391.28
2019-05-14T14:24:14.476Z,87394.81
2019-05-14T14:26:41.209Z,87399.91
2019-05-14T14:29:09.197Z,87393.67
2019-05-14T14:31:36.473Z,87381.91
2019-05-14T14:34:03.421Z,87388.84
2019-05-14T14:36:30.317Z,87412.56
2019-05-14T14:38:58.845Z,87410.82
2019-05-14T14:41:28.413Z,87413.93
2019-05-14T14:43:55.488Z,87439.34
2019-05-14T14:46:22.317Z,87445.94
2019-05-14T14:48:49.670Z,87442.27
2019-05-14T14:51:19.350Z,87435.86
2019-05-14T14:53:58.436Z,87420.16
2019-05-14T14:56:14.581Z,87408.09
2019-05-14T14:58:41.425Z,87407.91
2019-05-14T15:01:08.766Z,87400.83
2019-05-14T15:03:36.185Z,87395.24
2019-05-14T15:06:03.036Z,87397.38
2019-05-14T15:08:29.771Z,87400.06
2019-05-14T15:10:59.109Z,87433.98
2019-05-14T15:13:25.156Z,87424.34
2019-05-14T15:15:51.887Z,87421.47
2019-05-14T15:18:18.885Z,87420.28
2019-05-14T15:20:48.919Z,87412.41
2019-05-14T15:23:15.026Z,87402.06
2019-05-14T15:25:41.969Z,87398.84
2019-05-14T15:28:10.709Z,87402.91
2019-05-14T15:30:39.573Z,87407.20
2019-05-14T15:33:08.976Z,87404.36
2019-05-14T15:35:34.706Z,87404.70
2019-05-14T15:38:01.465Z,87411.81
2019-05-14T15:40:28.901Z,87417.74
2019-05-14T15:42:58.967Z,87423.51
2019-05-14T15:45:24.581Z,87428.03
2019-05-14T15:47:51.900Z,87420.00
2019-05-14T15:50:20.104Z,87415.67
2019-05-14T15:52:48.687Z,87423.82
2019-05-14T15:55:23.175Z,87427.84
2019-05-14T15:57:49.944Z,87413.73
2019-05-14T16:00:19.560Z,87428.19
2019-05-14T16:02:45.375Z,87436.28
2019-05-14T16:05:12.289Z,87454.62
2019-05-14T16:07:39.336Z,87442.31
2019-05-14T16:10:08.588Z,87446.81
2019-05-14T16:12:36.048Z,87442.83
2019-05-14T16:15:08.371Z,87444.97
2019-05-14T16:17:34.439Z,87447.98
2019-05-14T16:20:20.969Z,87449.06
2019-05-14T16:22:47.730Z,87442.14
2019-05-14T16:25:15.694Z,87429.27
2019-05-14T16:27:44.008Z,87427.13
2019-05-14T16:30:11.120Z,87432.23
2019-05-14T16:32:39.423Z,87434.76
2019-05-14T16:35:08.888Z,87429.44
2019-05-14T16:37:35.830Z,87434.02
2019-05-14T16:40:05.431Z,87427.89
2019-05-14T16:42:32.215Z,87434.78
2019-05-14T16:44:58.936Z,87430.84
2019-05-14T16:47:28.024Z,87429.03
2019-05-14T16:49:54.257Z,87430.17
2019-05-14T16:52:22.274Z,87436.22
2019-05-14T16:54:49.058Z,87441.48
2019-05-14T16:57:18.415Z,87439.59
2019-05-14T16:59:44.314Z,87442.05
2019-05-14T17:02:11.042Z,87439.95
2019-05-14T17:04:38.777Z,87438.40
2019-05-14T17:07:05.647Z,87432.81
2019-05-14T17:09:32.367Z,87438.16
2019-05-14T17:11:59.176Z,87438.34
2019-05-14T17:14:25.915Z,87450.08
2019-05-14T17:16:53.277Z,87440.64
2019-05-14T17:19:20.169Z,87437.20
2019-05-14T17:21:48.974Z,87445.91
2019-05-14T17:24:15.569Z,87454.45
2019-05-14T17:26:42.373Z,87449.48
2019-05-14T17:29:09.083Z,87449.77
2019-05-14T17:31:39.117Z,87443.16
2019-05-14T17:34:08.602Z,87446.06
2019-05-14T17:36:34.902Z,87447.23
2019-05-14T17:39:01.657Z,87445.88
2019-05-14T17:41:29.043Z,87446.92
2019-05-14T17:43:55.797Z,87448.05
2019-05-14T17:46:22.515Z,87448.33
2019-05-14T17:48:49.320Z,87450.55
2019-05-14T17:51:18.114Z,87442.25
2019-05-14T17:53:44.608Z,87447.45
2019-05-14T17:56:11.531Z,87441.53
2019-05-14T17:58:38.567Z,87442.46
2019-05-14T18:01:05.520Z,87432.87
2019-05-14T18:03:32.377Z,87440.75
2019-05-14T18:05:59.133Z,87439.91
2019-05-14T18:08:25.930Z,87435.03
2019-05-14T18:10:53.247Z,87435.44
2019-05-14T18:13:20.012Z,87436.53
2019-05-14T18:15:48.849Z,87443.98
2019-05-14T18:18:15.305Z,87452.35
2019-05-14T18:20:42.034Z,87453.80
2019-05-14T18:23:11.752Z,87453.67
2019-05-14T18:25:38.910Z,87448.57
2019-05-14T18:28:09.066Z,87438.64
2019-05-14T18:30:34.410Z,87435.84
2019-05-14T18:33:01.177Z,87437.02
2019-05-14T18:35:29.458Z,87429.88
2019-05-14T18:37:56.501Z,87432.22
2019-05-14T18:40:23.389Z,87423.11
2019-05-14T18:42:50.139Z,87425.27
2019-05-14T18:45:19.007Z,87426.00
2019-05-14T18:47:48.327Z,87429.88
2019-05-14T18:50:14.395Z,87428.08
2019-05-14T18:52:41.156Z,87425.95
2019-05-14T18:55:08.601Z,87429.81
2019-05-14T18:57:35.407Z,87423.88
2019-05-14T19:00:05.711Z,87426.63
2019-05-14T19:02:33.005Z,87426.28
2019-05-14T19:04:59.718Z,87430.15
2019-05-14T19:07:28.745Z,87429.80
2019-05-14T19:09:55.156Z,87422.78
2019-05-14T19:12:21.977Z,87416.44
2019-05-14T19:14:49.228Z,87415.88
2019-05-14T19:17:18.543Z,87411.81
2019-05-14T19:19:44.843Z,87414.98
2019-05-14T19:22:11.562Z,87415.83
2019-05-14T19:24:38.439Z,87412.23
2019-05-14T19:27:05.636Z,87412.99
2019-05-14T19:29:32.345Z,87412.45
2019-05-14T19:31:59.200Z,87423.46
2019-05-14T19:34:25.933Z,87417.81
2019-05-14T19:36:52.652Z,87419.39
2019-05-14T19:39:19.471Z,87415.23
2019-05-14T19:41:48.271Z,87413.11
2019-05-14T19:44:14.819Z,87414.48
2019-05-14T19:46:41.629Z,87415.86
2019-05-14T19:49:08.404Z,87416.67
2019-05-14T19:51:35.120Z,87419.92
2019-05-14T19:54:01.958Z,87420.05
2019-05-14T19:56:29.311Z,87418.49
2019-05-14T19:58:56.243Z,87404.15
2019-05-14T20:01:23.028Z,87406.22
2019-05-14T20:03:49.748Z,87405.00
2019-05-14T20:06:18.698Z,87404.81
2019-05-14T20:08:45.145Z,87395.95
2019-05-14T20:11:11.879Z,87399.75
2019-05-14T20:13:39.293Z,87407.47
2019-05-14T20:16:08.495Z,87400.86
2019-05-14T20:18:34.840Z,87395.44
2019-05-14T20:21:01.574Z,87393.24
2019-05-14T20:23:29.128Z,87388.08
2019-05-14T20:25:56.026Z,87388.61
2019-05-14T20:28:23.237Z,87382.91
2019-05-14T20:30:50.114Z,87381.31
2019-05-14T20:33:18.913Z,87376.50
2019-05-14T20:35:45.416Z,87378.77
2019-05-14T20:38:12.230Z,87384.00
2019-05-14T20:40:39.011Z,87377.72
2019-05-14T20:43:05.731Z,87382.27
2019-05-14T20:45:32.534Z,87375.41
2019-05-14T20:47:59.266Z,87372.91
2019-05-14T20:50:26.011Z,87372.00
2019-05-14T20:52:52.779Z,87372.30
2019-05-14T20:55:19.533Z,87360.62
2019-05-14T20:57:48.738Z,87349.17
2019-05-14T21:00:18.225Z,87349.28
2019-05-14T21:02:45.004Z,87345.73
2019-05-14T21:05:13.736Z,87348.05
2019-05-14T21:07:40.481Z,87345.97
2019-05-14T21:10:07.830Z,87349.06
2019-05-14T21:12:34.911Z,87352.86
2019-05-14T21:15:02.138Z,87345.02
2019-05-14T21:17:28.853Z,87338.31
2019-05-14T21:19:55.597Z,87340.52
2019-05-14T21:22:22.397Z,87339.72
2019-05-14T21:24:53.002Z,87334.09
2019-05-14T21:27:18.706Z,87333.57
2019-05-14T21:29:45.687Z,87333.45
2019-05-14T21:32:12.430Z,87327.68
2019-05-14T21:34:39.196Z,87331.00
2019-05-14T21:37:05.983Z,87326.13
2019-05-14T21:39:32.765Z,87319.79
2019-05-14T21:41:59.530Z,87320.97
2019-05-14T21:44:28.320Z,87319.63
2019-05-14T21:46:54.837Z,87318.72
2019-05-14T21:49:21.594Z,87313.97
2019-05-14T21:51:51.314Z,87318.31
2019-05-14T21:54:18.954Z,87315.72
2019-05-14T21:56:45.482Z,87304.68
2019-05-14T21:59:12.303Z,87311.80
2019-05-14T22:01:39.561Z,87308.02
2019-05-14T22:04:08.727Z,87309.48
2019-05-14T22:06:35.148Z,87310.63
2019-05-14T22:09:01.901Z,87311.22
2019-05-14T22:11:28.731Z,87310.20
2019-05-14T22:13:55.514Z,87304.45
2019-05-14T22:16:22.254Z,87305.56
2019-05-14T22:18:49.005Z,87303.98
2019-05-14T22:21:17.983Z,87301.46
2019-05-14T22:23:44.390Z,87294.59
2019-05-14T22:26:11.140Z,87298.16
2019-05-14T22:28:37.957Z,87295.00
2019-05-14T22:31:04.767Z,87296.05
2019-05-14T22:33:31.480Z,87302.23
2019-05-14T22:35:58.268Z,87304.53
2019-05-14T22:38:24.998Z,87298.79
2019-05-14T22:40:51.731Z,87291.05
2019-05-14T22:43:18.543Z,87286.56
2019-05-14T22:45:45.284Z,87279.08
2019-05-14T22:48:12.029Z,87275.95
2019-05-14T22:50:41.452Z,87279.37
2019-05-14T22:53:09.367Z,87279.44
2019-05-14T22:55:38.113Z,87267.27
2019-05-14T22:58:04.616Z,87260.13
2019-05-14T23:00:31.373Z,87262.61
2019-05-14T23:02:58.105Z,87265.92
2019-05-14T23:05:24.897Z,87260.06
2019-05-14T23:07:51.652Z,87257.67
2019-05-14T23:10:18.503Z,87251.81
2019-05-14T23:12:45.303Z,87254.02
2019-05-14T23:15:12.448Z,87242.19
2019-05-14T23:17:39.181Z,87246.02
2019-05-14T23:20:06.276Z,87244.88
2019-05-14T23:22:33.009Z,87232.91
2019-05-14T23:24:59.737Z,87234.63
2019-05-14T23:27:26.599Z,87225.78
2019-05-14T23:29:53.330Z,87226.45
2019-05-14T23:32:20.365Z,87230.42
2019-05-14T23:34:48.822Z,87227.91
2019-05-14T23:37:18.121Z,87215.66
2019-05-14T23:39:45.117Z,87209.22
2019-05-14T23:42:12.077Z,87211.04
2019-05-14T23:44:38.930Z,87202.00
2019-05-14T23:47:05.657Z,87201.17
2019-05-14T23:49:32.493Z,87195.25
2019-05-14T23:51:59.243Z,87198.41
2019-05-14T23:54:25.986Z,87199.16
2019-05-14T23:56:52.756Z,87192.73
2019-05-14T23:59:19.485Z,87189.97
